Coolgardie, Australia
Current Conditions -  °F | °C
As of 1:00 PM on Saturday 20 Dec 2014 (Local Time) from YPKG Reporting Station
Scattered Clouds Scattered Clouds  
Wind Chill: 99°   Ceiling: Unl
Heat Index: 99°   Visibility: 6mi
Dew Point: 55°   Wind: 16mph
Humidity: 24%   Direction: 310°NW
Pressure: 29.68"   Gusts: NA
Location:  30.95°S, 121.17°E
Report Text: YPKG 200500Z AUTO 31014KT 9999 // SCT078 37/13 Q1005
Loading
Personal Weather Stations






























Interactive Weather Map New forecast layout! Learn more

10-Day Weather Forecast

Advertisements
Track Severe Weather on mobile